Temp     Hi    Low   Out    Dew  Wind  Wind   Wind    Hi    Hi   Wind   Heat    THW                Rain    Heat    Cool    In     In    In     In     In   In Air   Temp  Wind  Wind    ISS   Arc.
  Date    Time     Out   Temp   Temp   Hum    Pt. Speed   Dir    Run Speed   Dir  Chill  Index  Index   Bar    Rain  Rate    D-D     D-D    Temp   Hum    Dew   Heat    EMC Density    2nd  Samp   Tx   Recept  Int.
----------------------------------------------------------------------------------------------------------------------------------------------------------------------------------------------------------------------
22/10/19 12:10a   12.7   12.8   12.7    70    7.4   0.0   ---   0.00   0.0   ---   12.7   12.3   12.3  1022.3  0.00   0.0   0.039   0.000   21.8    31    3.9   20.1   6.32 1.1983    11.7     0    2      0.0   10 
22/10/19 12:20a   12.7   12.7   12.7    71    7.5   0.0   ---   0.00   0.0   ---   12.7   12.3   12.3  1022.0  0.00   0.0   0.039   0.000   21.8    31    3.9   20.1   6.33 1.1982    11.7     0    2      0.0   10 
22/10/19 12:30a   12.6   12.7   12.6    71    7.4   0.0   ---   0.00   0.0   ---   12.6   12.2   12.2  1021.9  0.00   0.0   0.040   0.000   21.7    31    3.8   19.9   6.33 1.1986    11.7     0    2      0.0   10 
22/10/19 12:40a   12.3   12.6   12.3    71    7.2   0.0   ---   0.00   0.0   ---   12.3   11.9   11.9  1021.9  0.00   0.0   0.042   0.000   21.5    32    4.1   19.7   6.54 1.1991    11.7     0    2      0.0   10 
22/10/19 12:50a   12.1   12.3   12.1    72    7.2   0.0   ---   0.00   0.0   ---   12.1   11.7   11.7  1021.9  0.00   0.0   0.044   0.000   21.3    32    3.9   19.4   6.54 1.2001    11.7     0    2      0.0   10 
22/10/19  1:00a   11.8   12.1   11.8    73    7.1   0.0   ---   0.00   0.0   ---   11.8   11.5   11.5  1021.8  0.00   0.0   0.045   0.000   21.1    32    3.8   19.2   6.55 1.2008    11.7     0    2      0.0   10 
22/10/19  1:10a   11.6   11.8   11.6    73    6.9   0.0   ---   0.00   0.0   ---   11.6   11.3   11.3  1021.8  0.00   0.0   0.047   0.000   21.1    32    3.8   19.2   6.55 1.2008    11.7     0    2      0.0   10 
22/10/19  1:20a   11.3   11.6   11.3    74    6.9   0.0   ---   0.00   0.0   ---   11.3   11.1   11.1  1021.6  0.00   0.0   0.049   0.000   20.9    32    3.6   19.1   6.55 1.2014    11.7     0    2      0.0   10 
22/10/19  1:30a   11.1   11.3   11.1    75    6.8   0.0   ---   0.00   0.0   ---   11.1   10.9   10.9  1021.6  0.00   0.0   0.050   0.000   20.8    32    3.5   18.9   6.55 1.2019    11.7     0    2      0.0   10 
22/10/19  1:40a   10.8   11.1   10.8    75    6.5   0.0   ---   0.00   0.0   ---   10.8   10.6   10.6  1021.6  0.00   0.0   0.052   0.000   20.7    32    3.4   18.8   6.55 1.2025    11.7     0    2      0.0   10 
22/10/19  1:50a   10.5   10.8   10.5    77    6.6   0.0   ---   0.00   0.0   ---   10.5   10.4   10.4  1021.5  0.00   0.0   0.054   0.000   20.4    33    3.6   18.7   6.67 1.2033    11.7     0    2      0.0   10 
22/10/19  2:00a   10.4   10.5   10.4    78    6.8   0.0   ---   0.00   0.0   ---   10.4   10.3   10.3  1021.2  0.00   0.0   0.055   0.000   20.4    33    3.6   18.7   6.67 1.2029    11.7     0    2      0.0   10 
22/10/19  2:10a   10.3   10.4   10.3    78    6.7   0.0   ---   0.00   0.0   ---   10.3   10.3   10.3  1021.2  0.00   0.0   0.056   0.000   20.3    33    3.5   18.6   6.68 1.2035    11.7     0    2      0.0   10 
22/10/19  2:20a   10.2   10.3   10.2    78    6.5   0.0   ---   0.00   0.0   ---   10.2   10.1   10.1  1021.1  0.00   0.0   0.057   0.000   20.2    33    3.4   18.4   6.68 1.2041    11.7     0    2      0.0   10 
22/10/19  2:30a    9.9   10.2    9.9    78    6.3   0.0   ---   0.00   0.0   ---    9.9    9.9    9.9  1021.2  0.00   0.0   0.058   0.000   20.2    33    3.4   18.4   6.68 1.2043    11.7     0    2      0.0   10 
22/10/19  2:40a    9.8    9.9    9.8    80    6.5   0.0   ---   0.00   0.0   ---    9.8    9.8    9.8  1021.2  0.00   0.0   0.059   0.000   20.1    33    3.3   18.3   6.69 1.2048    11.7     0    2      0.0   10 
22/10/19  2:50a    9.7    9.8    9.7    81    6.6   0.0   ---   0.00   0.0   ---    9.7    9.7    9.7  1021.2  0.00   0.0   0.060   0.000   20.0    33    3.2   18.2   6.69 1.2051    11.7     0    2      0.0   10 
22/10/19  3:00a    9.6    9.7    9.6    82    6.7   0.0   ---   0.00   0.0   ---    9.6    9.6    9.6  1021.1  0.00   0.0   0.061   0.000   19.9    33    3.1   18.1   6.69 1.2054    11.7     0    2      0.0   10 
22/10/19  3:10a    9.6    9.6    9.6    83    6.9   0.0   ---   0.00   0.0   ---    9.6    9.6    9.6  1021.1  0.00   0.0   0.061   0.000   19.8    33    3.0   17.9   6.70 1.2059    11.7     0    2      0.0   10 
22/10/19  3:20a    9.6    9.6    9.6    83    6.9   0.0   ---   0.00   0.0   ---    9.6    9.6    9.6  1021.0  0.00   0.0   0.061   0.000   19.8    33    3.0   17.9   6.70 1.2058    11.7     0    2      0.0   10 
22/10/19  3:30a    9.4    9.6    9.4    83    6.6   0.0   ---   0.00   0.0   ---    9.4    9.4    9.4  1020.8  0.00   0.0   0.062   0.000   19.6    33    2.9   17.8   6.70 1.2064    11.7     0    2      0.0   10 
22/10/19  3:40a    9.4    9.4    9.3    83    6.6   0.0   ---   0.00   0.0   ---    9.4    9.4    9.4  1020.8  0.00   0.0   0.062   0.000   19.6    34    3.3   17.8   6.85 1.2061    11.7     0    2      0.0   10 
22/10/19  3:50a    9.3    9.4    9.3    83    6.5   0.0   ---   0.00   0.0   ---    9.3    9.3    9.3  1020.7  0.00   0.0   0.063   0.000   19.4    34    3.2   17.7   6.85 1.2068    11.7     0    2      0.0   10 
22/10/19  4:00a    9.2    9.3    9.2    83    6.5   0.0   ---   0.00   0.0   ---    9.2    9.2    9.2  1020.7  0.00   0.0   0.063   0.000   19.5    34    3.2   17.7   6.85 1.2064    11.7     0    2      0.0   10 
22/10/19  4:10a    9.2    9.2    9.2    83    6.5   0.0   ---   0.00   0.0   ---    9.2    9.2    9.2  1020.7  0.00   0.0   0.063   0.000   19.4    34    3.2   17.7   6.85 1.2067    11.7     0    2      0.0   10 
22/10/19  4:20a    9.1    9.2    9.1    83    6.3   0.0   ---   0.00   0.0   ---    9.1    9.1    9.1  1020.9  0.00   0.0   0.064   0.000   19.4    34    3.2   17.7   6.85 1.2070    11.7     0    2      0.0   10 
22/10/19  4:30a    8.8    9.1    8.8    83    6.0   0.0   ---   0.00   0.0   ---    8.8    8.8    8.8  1020.8  0.00   0.0   0.066   0.000   19.3    34    3.1   17.6   6.85 1.2074    11.7     0    2      0.0   10 
22/10/19  4:40a    8.6    8.8    8.6    83    5.9   0.0   ---   0.00   0.0   ---    8.6    8.6    8.6  1020.8  0.00   0.0   0.068   0.000   19.2    34    2.9   17.4   6.85 1.2082    11.7     0    2      0.0   10 
22/10/19  4:50a    8.4    8.6    8.4    84    5.9   0.0   ---   0.00   0.0   ---    8.4    8.4    8.4  1020.8  0.00   0.0   0.069   0.000   19.2    34    2.9   17.4   6.85 1.2082    11.7     0    2      0.0   10 
22/10/19  5:00a    8.2    8.4    8.2    84    5.7   0.0   ---   0.00   0.0   ---    8.2    8.2    8.2  1021.0  0.00   0.0   0.070   0.000   19.1    34    2.8   17.3   6.85 1.2089    11.7     0    2      0.0   10 
22/10/19  5:10a    7.9    8.2    7.9    84    5.4   0.0   ---   0.00   0.0   ---    7.9    7.9    7.9  1021.0  0.00   0.0   0.072   0.000   19.0    34    2.8   17.2   6.85 1.2092    11.7     0    2      0.0   10 
22/10/19  5:20a    7.8    7.9    7.8    85    5.5   0.0   ---   0.00   0.0   ---    7.8    7.8    7.8  1021.2  0.00   0.0   0.073   0.000   18.9    34    2.7   17.1   6.85 1.2100    11.7     0    2      0.0   10 
22/10/19  5:30a    7.7    7.8    7.7    85    5.3   0.0   ---   0.00   0.0   ---    7.7    7.7    7.7  1021.3  0.00   0.0   0.074   0.000   18.8    34    2.6   17.1   6.85 1.2103    11.7     0    2      0.0   10 
22/10/19  5:40a    7.6    7.7    7.6    86    5.4   0.0   ---   0.00   0.0   ---    7.6    7.6    7.6  1021.3  0.00   0.0   0.075   0.000   18.7    34    2.5   16.9   6.85 1.2109    11.7     0    2      0.0   10 
22/10/19  5:50a    7.5    7.6    7.5    86    5.3   0.0   ---   0.00   0.0   ---    7.5    7.5    7.5  1021.5  0.00   0.0   0.075   0.000   18.6    34    2.4   16.7   6.85 1.2119    11.7     0    2      0.0   10 
22/10/19  6:00a    7.4    7.5    7.4    87    5.4   0.0   ---   0.00   0.0   ---    7.4    7.4    7.4  1021.7  0.00   0.0   0.076   0.000   18.6    34    2.4   16.7   6.85 1.2121    11.7     0    2      0.0   10 
22/10/19  6:10a    7.3    7.4    7.3    87    5.3   0.0   ---   0.00   0.0   ---    7.3    7.3    7.3  1021.7  0.00   0.0   0.076   0.000   18.4    34    2.3   16.6   6.85 1.2126    11.7     0    2      0.0   10 
22/10/19  6:20a    7.3    7.3    7.3    88    5.5   0.0   ---   0.00   0.0   ---    7.3    7.3    7.3  1022.0  0.00   0.0   0.076   0.000   18.3    34    2.2   16.5   6.85 1.2136    11.7     0    2      0.0   10 
22/10/19  6:30a    7.3    7.3    7.3    89    5.6   0.0   ---   0.00   0.0   ---    7.3    7.4    7.4  1022.1  0.00   0.0   0.076   0.000   18.3    34    2.2   16.5   6.85 1.2136    11.7     0    2      0.0   10 
22/10/19  6:40a    7.2    7.3    7.2    89    5.5   0.0   ---   0.00   0.0   ---    7.2    7.3    7.3  1022.1  0.00   0.0   0.077   0.000   18.3    34    2.1   16.4   6.85 1.2139    11.7     0    2      0.0   10 
22/10/19  6:50a    7.4    7.4    7.2    89    5.7   0.0   ---   0.00   0.0   ---    7.4    7.4    7.4  1022.2  0.00   0.0   0.076   0.000   18.2    34    2.0   16.3   6.86 1.2146    11.7     0    2      0.0   10 
22/10/19  7:00a    7.9    7.9    7.4    90    6.4   0.0   ---   0.00   0.0   ---    7.9    8.0    8.0  1022.4  0.00   0.0   0.072   0.000   18.2    34    2.0   16.3   6.86 1.2148    11.7     0    2      0.0   10 
22/10/19  7:10a    8.6    8.6    7.9    90    7.1   0.0   ---   0.00   0.0   ---    8.6    8.7    8.7  1022.4  0.00   0.0   0.068   0.000   18.1    35    2.4   16.3   7.05 1.2148    11.7     0    2      0.0   10 
22/10/19  7:20a    9.2    9.2    8.7    90    7.7   0.0   ---   0.00   0.0   ---    9.2    9.4    9.4  1022.7  0.00   0.0   0.063   0.000   18.3    35    2.5   16.5   7.05 1.2143    11.7     0    2      0.0   10 
22/10/19  7:30a   10.3   10.3    9.6    86    8.0   0.0   ---   0.00   0.0   ---   10.3   10.3   10.3  1022.6  0.00   0.0   0.056   0.000   18.2    35    2.4   16.4   7.05 1.2147    11.7     0    2      0.0   10 
22/10/19  7:40a   10.9   10.9   10.3    81    7.8   0.0   ---   0.00   0.0   ---   10.9   10.9   10.9  1022.6  0.00   0.0   0.051   0.000   18.2    35    2.4   16.4   7.05 1.2147    11.7     0    2      0.0   10 
22/10/19  7:50a   11.3   11.3   10.9    79    7.8   0.0   ---   0.00   0.0   ---   11.3   11.1   11.1  1022.5  0.00   0.0   0.049   0.000   18.2    35    2.4   16.4   7.05 1.2146    11.7     0    2      0.0   10 
22/10/19  8:00a   11.3   11.3   11.3    77    7.4   0.0   ---   0.00   0.0   ---   11.3   11.1   11.1  1022.5  0.00   0.0   0.049   0.000   18.3    35    2.5   16.5   7.05 1.2142    11.7     0    2      0.0   10 
22/10/19  8:10a   11.8   11.8   11.3    76    7.7   0.0   ---   0.00   0.0   ---   11.8   11.6   11.6  1022.5  0.00   0.0   0.045   0.000   18.3    35    2.6   16.6   7.05 1.2139    11.7     0    2      0.0   10 
22/10/19  8:20a   12.6   12.6   12.2    73    7.8   0.0   ---   0.00   0.0   ---   12.6   12.2   12.2  1022.8  0.00   0.0   0.040   0.000   18.4    35    2.7   16.7   7.05 1.2137    11.7     0    2      0.0   10 
22/10/19  8:30a   13.1   13.1   12.6    73    8.3   0.0   ---   0.00   0.0   ---   13.1   12.7   12.7  1022.6  0.00   0.0   0.037   0.000   18.6    35    2.8   16.8   7.05 1.2127    11.7     0    2      0.0   10 
22/10/19  8:40a   14.1   14.1   13.2    69    8.5   0.0   ---   0.00   0.0   ---   14.1   13.6   13.6  1022.6  0.00   0.0   0.030   0.000   18.7    35    2.9   17.0   7.05 1.2122    11.7     0    2      0.0   10 
22/10/19  8:50a   14.8   14.8   14.1    65    8.3   0.0   ---   0.00   0.0   ---   14.8   14.3   14.3  1022.5  0.00   0.0   0.024   0.000   18.8    34    2.6   17.1   6.85 1.2117    11.7     0    2      0.0   10 
22/10/19  9:00a   15.7   15.7   14.9    61    8.2   0.0   ---   0.00   0.0   ---   15.7   15.1   15.1  1022.5  0.00   0.0   0.018   0.000   18.9    34    2.7   17.1   6.85 1.2115    11.7     0    2      0.0   10 
22/10/19  9:10a   16.0   16.0   15.7    61    8.5   0.0   ---   0.00   0.0   ---   16.0   15.4   15.4  1022.5  0.00   0.0   0.016   0.000   18.9    34    2.7   17.1   6.85 1.2115    11.7     0    2      0.0   10 
22/10/19  9:20a   16.3   16.3   16.0    60    8.5   0.0   ---   0.00   0.0   ---   16.3   15.6   15.6  1022.6  0.00   0.0   0.014   0.000   19.1    34    2.8   17.3   6.85 1.2109    11.7     0    2      0.0   10 
22/10/19  9:30a   16.9   16.9   16.3    57    8.3   0.0   ---   0.00   0.0   ---   16.9   16.2   16.2  1022.5  0.00   0.0   0.010   0.000   19.2    34    2.9   17.4   6.85 1.2102    11.7     0    2      0.0   10 
22/10/19  9:40a   17.1   17.1   16.9    57    8.5   0.0   ---   0.00   0.0   ---   17.1   16.4   16.4  1022.5  0.00   0.0   0.008   0.000   19.3    34    3.1   17.6   6.85 1.2094    11.7     0    2      0.0   10 
22/10/19  9:50a   18.1   18.1   17.2    54    8.7   0.0   ---   0.00   0.0   ---   18.1   17.4   17.4  1022.4  0.00   0.0   0.002   0.000   19.5    34    3.2   17.7   6.85 1.2085    11.7     0    2      0.0   10 
22/10/19 10:00a   19.4   19.4   19.1    49    8.4   0.0   ---   0.00   0.0   ---   19.4   18.6   18.6  1022.0  0.00   0.0   0.000   0.008   19.7    34    3.4   17.9   6.85 1.2071    11.7     0    2      0.0   10 
22/10/19 10:10a   20.6   20.6   19.4    47    8.8   0.0   ---   0.00   0.0   ---   20.6   19.6   19.6  1022.0  0.00   0.0   0.000   0.015   19.9    34    3.6   18.2   6.85 1.2063    11.7     0    2      0.0   10 
22/10/19 10:20a   21.3   21.3   20.6    44    8.6   0.0   ---   0.00   0.0   ---   21.3   20.1   20.1  1021.9  0.00   0.0   0.000   0.021   20.0    33    3.2   18.2   6.69 1.2059    11.7     0    2      0.0   10 
22/10/19 10:30a   22.0   22.0   21.3    41    8.1   0.0   ---   0.00   0.0   ---   22.0   20.9   20.9  1021.7  0.00   0.0   0.000   0.025   20.2    33    3.4   18.4   6.68 1.2049    11.7     0    2      0.0   10 
22/10/19 10:40a   22.3   22.3   22.0    41    8.4   0.0   ---   0.00   0.0   ---   22.3   21.4   21.4  1021.7  0.00   0.0   0.000   0.028   20.3    34    3.9   18.6   6.85 1.2041    11.7     0    2      0.0   10 
22/10/19 10:50a   22.9   22.9   22.3    39    8.2   0.0   ---   0.00   0.0   ---   22.9   22.2   22.2  1021.6  0.00   0.0   0.000   0.032   20.3    33    3.5   18.6   6.68 1.2039    11.7     0    2      0.0   10 
22/10/19 11:00a   23.3   23.3   23.0    38    8.2   0.0   ---   0.00   0.0   ---   23.3   22.7   22.7  1021.2  0.00   0.0   0.000   0.035   20.4    34    4.0   18.7   6.85 1.2027    11.7     0    2      0.0   10 
22/10/19 11:10a   23.9   23.9   23.3    37    8.3   0.0   ---   0.00   0.0   ---   23.9   23.3   23.3  1021.2  0.00   0.0   0.000   0.039   20.4    34    4.0   18.7   6.85 1.2027    11.7     0    2      0.0   10 
22/10/19 11:20a   24.2   24.2   23.9    35    7.7   0.0   ---   0.00   0.0   ---   24.2   23.5   23.5  1021.0  0.00   0.0   0.000   0.041   20.7    34    4.3   19.0   6.85 1.2012    11.7     0    2      0.0   10 
22/10/19 11:30a   24.9   24.9   24.6    34    7.9   0.0   ---   0.00   0.0   ---   24.9   24.3   24.3  1020.7  0.00   0.0   0.000   0.046   21.0    34    4.5   19.2   6.85 1.1995    11.7     0    2      0.0   10 
22/10/19 11:40a   25.3   25.3   24.9    31    6.9   0.0   ---   0.00   0.0   ---   25.3   24.6   24.6  1020.7  0.00   0.0   0.000   0.048   21.3    34    4.8   19.6   6.84 1.1981    11.7     0    2      0.0   10 
22/10/19 11:50a   25.6   25.6   25.3    31    7.2   0.0   ---   0.00   0.0   ---   25.6   24.7   24.7  1020.5  0.00   0.0   0.000   0.050   21.6    33    4.6   19.8   6.63 1.1969    11.7     0    2      0.0   10 
22/10/19 12:00p   26.4   26.4   25.8    29    6.9   0.0   ---   0.00   0.0   ---   26.4   25.3   25.3  1020.1  0.00   0.0   0.000   0.056   21.7    33    4.7   20.0   6.63 1.1959    11.7     0    2      0.0   10 
22/10/19 12:10p   26.4   26.6   26.4    28    6.4   0.0   ---   0.00   0.0   ---   26.4   25.2   25.2  1020.1  0.00   0.0   0.000   0.056   21.8    33    4.8   20.2   6.62 1.1951    11.7     0    2      0.0   10 
22/10/19 12:20p   26.1   26.4   25.9    33    8.5   0.0   ---   0.00   0.0   ---   26.1   25.3   25.3  1020.0  0.00   0.0   0.000   0.054   21.8    33    4.8   20.2   6.62 1.1950    11.7     0    2      0.0   10 
22/10/19 12:30p   26.7   26.7   26.1    28    6.6   0.0   ---   0.00   0.0   ---   26.7   25.4   25.4  1019.7  0.00   0.0   0.000   0.058   21.9    33    4.9   20.4   6.62 1.1942    11.7     0    2      0.0   10 
22/10/19 12:40p   26.9   26.9   26.7    28    6.8   0.0   ---   0.00   0.0   ---   26.9   25.7   25.7  1019.7  0.00   0.0   0.000   0.059   22.1    33    5.0   20.6   6.62 1.1937    11.7     0    2      0.0   10 
22/10/19 12:50p   27.6   27.6   27.0    26    6.4   0.0   ---   0.00   0.0   ---   27.6   26.3   26.3  1019.3  0.00   0.0   0.000   0.064   22.2    33    5.1   20.7   6.61 1.1927    11.7     0    2      0.0   10 
22/10/19  1:00p   28.4   28.4   27.6    23    5.3   0.0   ---   0.00   0.0   ---   28.4   26.8   26.8  1019.0  0.00   0.0   0.000   0.070   22.4    33    5.4   21.1   6.60 1.1910    11.7     0    2      0.0   10 
22/10/19  1:10p   28.2   28.4   28.2    23    5.1   0.0   ---   0.00   0.0   ---   28.2   26.6   26.6  1019.0  0.00   0.0   0.000   0.068   22.5    33    5.4   21.2   6.60 1.1908    11.7     0    2      0.0   10 
22/10/19  1:20p   28.8   28.8   28.2    23    5.6   0.0   ---   0.00   0.0   ---   28.8   27.3   27.3  1019.1  0.00   0.0   0.000   0.073   22.7    33    5.6   21.6   6.59 1.1898    11.7     0    2      0.0   10 
22/10/19  1:30p   28.4   28.8   28.4    22    4.6   0.0   ---   0.00   0.0   ---   28.4   26.8   26.8  1018.8  0.00   0.0   0.000   0.070   23.1    33    6.0   22.2   6.58 1.1876    11.7     0    2      0.0   10 
22/10/19  1:40p   28.8   28.8   28.4    21    4.3   0.0   ---   0.00   0.0   ---   28.8   27.2   27.2  1018.8  0.00   0.0   0.000   0.073   23.4    33    6.2   22.6   6.57 1.1863    11.7     0    2      0.0   10 
22/10/19  1:50p   29.2   29.2   28.8    19    3.2   0.0   ---   0.00   0.0   ---   29.2   27.5   27.5  1018.7  0.00   0.0   0.000   0.076   23.7    33    6.4   22.9   6.56 1.1849    11.7     0    2      0.0   10 
22/10/19  2:00p   29.3   29.3   29.2    20    4.0   0.0   ---   0.00   0.0   ---   29.3   27.6   27.6  1018.5  0.00   0.0   0.000   0.076   23.9    32    6.2   23.1   6.45 1.1837    11.7     0    2      0.0   10 
22/10/19  2:10p   29.8   29.8   29.4    20    4.4   0.0   ---   0.00   0.0   ---   29.8   28.0   28.0  1018.5  0.00   0.0   0.000   0.079   24.3    32    6.5   23.5   6.44 1.1821    11.7     0    2      0.0   10 
22/10/19  2:20p   29.8   29.9   29.8    16    1.2   0.0   ---   0.00   0.0   ---   29.8   27.9   27.9  1018.4  0.00   0.0   0.000   0.079   24.4    31    6.2   23.7   6.23 1.1817    11.7     0    2      0.0   10 
22/10/19  2:30p   29.0   29.4   29.0    16    0.6   0.0   ---   0.00   0.0   ---   29.0   27.2   27.2  1018.3  0.00   0.0   0.000   0.074   24.7    31    6.4   24.0   6.22 1.1802    11.7     0    2      0.0   10 
22/10/19  2:40p   28.8   28.8   28.8    16    0.5   0.0   ---   0.00   0.0   ---   28.8   27.1   27.1  1018.3  0.00   0.0   0.000   0.073   24.8    30    6.1   24.1   6.05 1.1801    11.7     0    2      0.0   10 
22/10/19  2:50p   28.8   28.8   28.7    16    0.5   0.0   ---   0.00   0.0   ---   28.8   27.1   27.1  1018.1  0.00   0.0   0.000   0.073   25.2    30    6.4   24.4   6.05 1.1783    11.7     0    2      0.0   10 
22/10/19  3:00p   29.3   29.3   29.0    17    1.7   0.0   ---   0.00   0.0   ---   29.3   27.6   27.6  1017.7  0.00   0.0   0.000   0.076   25.2    29    5.9   24.4   5.85 1.1780    11.7     0    2      0.0   10 
22/10/19  3:10p   29.2   29.3   29.1    17    1.6   0.0   ---   0.00   0.0   ---   29.2   27.4   27.4  1017.7  0.00   0.0   0.000   0.076   25.4    29    6.1   24.6   5.85 1.1769    11.7     0    2      0.0   10 
22/10/19  3:20p   29.2   29.2   29.2    15   -0.1   0.0   ---   0.00   0.0   ---   29.2   27.4   27.4  1017.5  0.00   0.0   0.000   0.076   25.6    28    5.7   24.6   5.71 1.1767    11.7     0    2      0.0   10 
22/10/19  3:30p   29.0   29.3   29.0    15   -0.3   0.0   ---   0.00   0.0   ---   29.0   27.2   27.2  1017.3  0.00   0.0   0.000   0.074   25.7    28    5.8   24.7   5.72 1.1757    11.7     0    2      0.0   10 
22/10/19  3:40p   29.0   29.0   28.8    15   -0.3   0.0   ---   0.00   0.0   ---   29.0   27.2   27.2  1017.3  0.00   0.0   0.000   0.074   25.8    28    5.9   24.8   5.72 1.1751    11.7     0    2      0.0   10 
22/10/19  3:50p   29.4   29.4   29.3    17    1.8   0.0   ---   0.00   0.0   ---   29.4   27.6   27.6  1017.2  0.00   0.0   0.000   0.077   25.8    27    5.4   24.8   5.55 1.1754    11.7     0    2      0.0   10 
22/10/19  4:00p   29.4   29.6   29.4    19    3.4   0.0   ---   0.00   0.0   ---   29.4   27.7   27.7  1016.9  0.00   0.0   0.000   0.077   25.8    27    5.4   24.8   5.55 1.1751    11.7     0    2      0.0   10 
22/10/19  4:10p   29.0   29.4   29.0    19    3.0   0.0   ---   0.00   0.0   ---   29.0   27.3   27.3  1016.9  0.00   0.0   0.000   0.074   25.9    27    5.5   24.8   5.55 1.1746    11.7     0    2      0.0   10 
22/10/19  4:20p   28.4   28.8   28.4    19    2.5   0.0   ---   0.00   0.0   ---   28.4   26.7   26.7  1017.1  0.00   0.0   0.000   0.070   26.3    27    5.8   25.1   5.55 1.1733    11.7     0    2      0.0   10 
22/10/19  4:30p   28.5   28.5   28.2    20    3.3   0.0   ---   0.00   0.0   ---   28.5   26.8   26.8  1017.3  0.00   0.0   0.000   0.071   26.9    25    5.2   25.5   5.34 1.1715    11.7     0    2      0.0   10 
22/10/19  4:40p   28.5   28.6   28.5    19    2.6   0.0   ---   0.00   0.0   ---   28.5   26.8   26.8  1017.3  0.00   0.0   0.000   0.071   27.6    25    5.8   26.2   5.32 1.1682    11.7     0    2      0.0   10 
22/10/19  4:50p   28.1   28.5   28.1    21    3.7   0.0   ---   0.00   0.0   ---   28.1   26.4   26.4  1017.3  0.00   0.0   0.000   0.068   28.0    24    5.5   26.6   5.10 1.1669    11.7     0    2      0.0   10 
22/10/19  5:00p   27.4   28.1   27.4    22    3.8   0.0   ---   0.00   0.0   ---   27.4   25.8   25.8  1017.4  0.00   0.0   0.000   0.063   28.0    23    4.9   26.5   4.95 1.1675    11.7     0    2      0.0   10 
22/10/19  5:10p   26.9   27.4   26.9    24    4.6   0.0   ---   0.00   0.0   ---   26.9   25.4   25.4  1017.4  0.00   0.0   0.000   0.059   28.1    23    5.0   26.6   4.95 1.1670    11.7     0    2      0.0   10 
22/10/19  5:20p   26.4   26.9   26.4    24    4.2   0.0   ---   0.00   0.0   ---   26.4   25.0   25.0  1017.6  0.00   0.0   0.000   0.056   28.0    23    4.9   26.5   4.95 1.1678    11.7     0    2      0.0   10 
22/10/19  5:30p   25.9   26.4   25.9    24    3.8   0.0   ---   0.00   0.0   ---   25.9   24.7   24.7  1017.7  0.00   0.0   0.000   0.052   28.1    23    5.0   26.6   4.95 1.1673    11.7     0    2      0.0   10 
22/10/19  5:40p   25.4   25.9   25.4    24    3.4   0.0   ---   0.00   0.0   ---   25.4   24.4   24.4  1017.7  0.00   0.0   0.000   0.049   28.6    23    5.4   27.1   4.91 1.1654    11.7     0    2      0.0   10 
22/10/19  5:50p   25.2   25.4   25.2    24    3.2   0.0   ---   0.00   0.0   ---   25.2   24.3   24.3  1018.0  0.00   0.0   0.000   0.047   28.4    23    5.3   26.9   4.92 1.1662    11.7     0    2      0.0   10 
22/10/19  6:00p   24.9   25.2   24.9    24    2.9   0.0   ---   0.00   0.0   ---   24.9   24.1   24.1  1017.9  0.00   0.0   0.000   0.046   28.0    23    4.9   26.5   4.95 1.1681    11.7     0    2      0.0   10 
22/10/19  6:10p   24.7   24.9   24.7    25    3.3   0.0   ---   0.00   0.0   ---   24.7   23.8   23.8  1017.9  0.00   0.0   0.000   0.044   27.6    23    4.6   26.1   4.98 1.1698    11.7     0    2      0.0   10 
22/10/19  6:20p   24.5   24.7   24.5    25    3.2   0.0   ---   0.00   0.0   ---   24.5   23.6   23.6  1018.0  0.00   0.0   0.000   0.043   27.3    23    4.3   25.7   5.01 1.1713    11.7     0    2      0.0   10 
22/10/19  6:30p   24.3   24.5   24.3    25    3.0   0.0   ---   0.00   0.0   ---   24.3   23.3   23.3  1018.0  0.00   0.0   0.000   0.041   27.1    23    4.1   25.5   5.02 1.1724    11.7     0    2      0.0   10 
22/10/19  6:40p   24.1   24.3   24.1    25    2.8   0.0   ---   0.00   0.0   ---   24.1   23.1   23.1  1018.0  0.00   0.0   0.000   0.040   26.9    23    4.0   25.4   5.03 1.1731    11.7     0    2      0.0   10 
22/10/19  6:50p   23.7   24.1   23.7    26    3.1   0.0   ---   0.00   0.0   ---   23.7   22.6   22.6  1018.3  0.00   0.0   0.000   0.037   26.8    23    3.9   25.3   5.04 1.1740    11.7     0    2      0.0   10 
22/10/19  7:00p   23.3   23.7   23.3    26    2.7   0.0   ---   0.00   0.0   ---   23.3   22.1   22.1  1018.5  0.00   0.0   0.000   0.035   26.6    23    3.7   25.1   5.05 1.1752    11.7     0    2      0.0   10 
22/10/19  7:10p   22.9   23.3   22.9    27    2.9   0.0   ---   0.00   0.0   ---   22.9   21.6   21.6  1018.5  0.00   0.0   0.000   0.032   26.3    23    3.5   24.9   5.05 1.1762    11.7     0    2      0.0   10 
22/10/19  7:20p   22.3   22.9   22.3    27    2.4   0.0   ---   0.00   0.0   ---   22.3   20.6   20.6  1018.4  0.00   0.0   0.000   0.028   26.3    24    4.1   24.9   5.15 1.1759    11.7     0    2      0.0   10 
22/10/19  7:30p   22.0   22.3   22.0    27    2.1   0.0   ---   0.00   0.0   ---   22.0   20.2   20.2  1018.6  0.00   0.0   0.000   0.025   26.2    24    4.0   24.8   5.15 1.1767    11.7     0    2      0.0   10 
22/10/19  7:40p   21.5   21.9   21.5    29    2.7   0.0   ---   0.00   0.0   ---   21.5   19.6   19.6  1018.6  0.00   0.0   0.000   0.022   26.2    24    4.0   24.8   5.15 1.1767    11.7     0    2      0.0   10 
22/10/19  7:50p   20.8   21.5   20.8    46    8.7   0.0   ---   0.00   0.0   ---   20.8   19.7   19.7  1019.2  0.00   0.0   0.000   0.017   25.9    24    3.8   24.7   5.15 1.1783    11.7     0    2      0.0   10 
22/10/19  8:00p   20.0   20.8   20.0    52    9.8   0.0   ---   0.00   0.0   ---   20.0   19.4   19.4  1019.5  0.00   0.0   0.000   0.012   25.8    25    4.3   24.7   5.32 1.1788    11.7     0    2      0.0   10 
22/10/19  8:10p   19.3   20.0   19.3    54    9.7   0.0   ---   0.00   0.0   ---   19.3   18.7   18.7  1019.5  0.00   0.0   0.000   0.007   25.7    27    5.3   24.7   5.55 1.1786    11.7     0    2      0.0   10 
22/10/19  8:20p   18.7   19.3   18.7    56    9.7   0.0   ---   0.00   0.0   ---   18.7   18.1   18.1  1019.3  0.00   0.0   0.000   0.002   25.6    28    5.7   24.7   5.71 1.1785    11.7     0    2      0.0   10 
22/10/19  8:30p   18.1   18.6   18.1    57    9.5   0.0   ---   0.00   0.0   ---   18.1   17.5   17.5  1019.7  0.00   0.0   0.002   0.000   25.6    28    5.7   24.6   5.71 1.1792    11.7     0    2      0.0   10 
22/10/19  8:40p   17.7   18.1   17.7    58    9.3   0.0   ---   0.00   0.0   ---   17.7   17.1   17.1  1019.7  0.00   0.0   0.005   0.000   25.4    28    5.6   24.6   5.71 1.1797    11.7     0    2      0.0   10 
22/10/19  8:50p   17.3   17.7   17.3    59    9.2   0.0   ---   0.00   0.0   ---   17.3   16.7   16.7  1020.0  0.00   0.0   0.007   0.000   25.3    28    5.5   24.5   5.70 1.1806    11.7     0    2      0.0   10 
22/10/19  9:00p   16.9   17.3   16.9    60    9.1   0.0   ---   0.00   0.0   ---   16.9   16.3   16.3  1020.3  0.00   0.0   0.010   0.000   25.2    29    5.9   24.4   5.85 1.1810    11.7     0    2      0.0   10 
22/10/19  9:10p   16.7   16.9   16.7    62    9.4   0.0   ---   0.00   0.0   ---   16.7   16.2   16.2  1020.3  0.00   0.0   0.011   0.000   25.2    29    5.9   24.4   5.85 1.1813    11.7     0    2      0.0   10 
22/10/19  9:20p   16.3   16.6   16.3    63    9.3   0.0   ---   0.00   0.0   ---   16.3   15.8   15.8  1020.1  0.00   0.0   0.014   0.000   25.1    29    5.8   24.3   5.85 1.1815    11.7     0    2      0.0   10 
22/10/19  9:30p   15.9   16.3   15.9    66    9.5   0.0   ---   0.00   0.0   ---   15.9   15.4   15.4  1020.6  0.00   0.0   0.017   0.000   24.9    30    6.2   24.3   6.05 1.1822    11.7     0    2      0.0   10 
22/10/19  9:40p   15.7   15.9   15.7    67    9.6   0.0   ---   0.00   0.0   ---   15.7   15.3   15.3  1020.6  0.00   0.0   0.018   0.000   24.9    30    6.2   24.3   6.05 1.1822    11.7     0    2      0.0   10 
22/10/19  9:50p   15.5   15.7   15.5    68    9.6   0.0   ---   0.00   0.0   ---   15.5   15.1   15.1  1020.9  0.00   0.0   0.020   0.000   24.7    31    6.4   24.0   6.22 1.1833    11.7     0    2      0.0   10 
22/10/19 10:00p   15.1   15.4   15.1    71    9.8   0.0   ---   0.00   0.0   ---   15.1   14.7   14.7  1021.2  0.00   0.0   0.023   0.000   24.7    31    6.4   23.9   6.22 1.1840    11.7     0    2      0.0   10 
22/10/19 10:10p   14.8   15.1   14.8    72    9.8   0.0   ---   0.00   0.0   ---   14.8   14.5   14.5  1021.2  0.00   0.0   0.024   0.000   24.6    31    6.3   23.8   6.23 1.1845    11.7     0    2      0.0   10 
22/10/19 10:20p   14.6   14.8   14.6    73    9.8   0.0   ---   0.00   0.0   ---   14.6   14.2   14.2  1020.9  0.00   0.0   0.026   0.000   24.4    31    6.2   23.7   6.23 1.1846    11.7     0    2      0.0   10 
22/10/19 10:30p   14.4   14.6   14.4    74    9.8   0.0   ---   0.00   0.0   ---   14.4   14.1   14.1  1021.0  0.00   0.0   0.027   0.000   24.4    31    6.2   23.7   6.23 1.1847    11.7     0    2      0.0   10 
22/10/19 10:40p   14.2   14.4   14.2    75    9.9   0.0   ---   0.00   0.0   ---   14.2   13.9   13.9  1021.0  0.00   0.0   0.029   0.000   24.3    31    6.1   23.5   6.23 1.1852    11.7     0    2      0.0   10 
22/10/19 10:50p   14.1   14.2   14.1    76    9.9   0.0   ---   0.00   0.0   ---   14.1   13.8   13.8  1021.1  0.00   0.0   0.029   0.000   24.2    31    6.0   23.3   6.24 1.1861    11.7     0    2      0.0   10 
22/10/19 11:00p   13.9   14.1   13.9    76    9.8   0.0   ---   0.00   0.0   ---   13.9   13.7   13.7  1021.1  0.00   0.0   0.030   0.000   23.9    31    5.8   23.1   6.25 1.1871    11.7     0    2      0.0   10 
22/10/19 11:10p   13.8   13.9   13.8    77    9.8   0.0   ---   0.00   0.0   ---   13.8   13.6   13.6  1021.1  0.00   0.0   0.032   0.000   23.9    31    5.7   23.0   6.25 1.1874    11.7     0    2      0.0   10 
22/10/19 11:20p   13.7   13.8   13.7    78   10.0   0.0   ---   0.00   0.0   ---   13.7   13.5   13.5  1020.8  0.00   0.0   0.032   0.000   23.8    31    5.6   22.9   6.25 1.1875    11.7     0    2      0.0   10 
22/10/19 11:30p   13.5   13.7   13.5    79    9.9   0.0   ---   0.00   0.0   ---   13.5   13.3   13.3  1020.9  0.00   0.0   0.034   0.000   23.7    32    6.0   22.8   6.46 1.1878    11.7     0    2      0.0   10 
22/10/19 11:40p   13.3   13.5   13.3    80   10.0   0.0   ---   0.00   0.0   ---   13.3   13.2   13.2  1020.9  0.00   0.0   0.035   0.000   23.6    32    5.9   22.7   6.46 1.1883    11.7     0    2      0.0   10 
22/10/19 11:50p   13.2   13.3   13.2    81   10.0   0.0   ---   0.00   0.0   ---   13.2   13.1   13.1  1020.8  0.00   0.0   0.035   0.000   23.4    32    5.7   22.6   6.47 1.1890    11.7     0    2      0.0   10 
23/10/19 12:00a   13.2   13.2   13.2    81   10.0   0.0   ---   0.00   0.0   ---   13.2   13.0   13.0  1021.0  0.00   0.0   0.036   0.000   23.2    32    5.6   22.2   6.48 1.1903    11.7     0    2      0.0   10 
23/10/19 12:10a   12.9   13.2   12.9    81    9.7   0.0   ---   0.00   0.0   ---   12.9   12.7   12.7  1021.0  0.00   0.0   0.038   0.000   23.1    32    5.5   22.1   6.48 1.1905    11.7     0    2      0.0   10 
23/10/19 12:20a   12.8   12.9   12.8    82    9.8   0.0   ---   0.00   0.0   ---   12.8   12.7   12.7  1020.5  0.00   0.0   0.038   0.000   22.9    33    5.8   21.8   6.59 1.1907    11.7     0    2      0.0   10 
23/10/19 12:30a   12.7   12.8   12.7    82    9.7   0.0   ---   0.00   0.0   ---   12.7   12.6   12.6  1020.5  0.00   0.0   0.039   0.000   22.8    33    5.7   21.8   6.59 1.1909    11.7     0    2      0.0   10 
23/10/19 12:40a   12.5   12.7   12.5    83    9.7   0.0   ---   0.00   0.0   ---   12.5   12.4   12.4  1020.5  0.00   0.0   0.041   0.000   22.6    33    5.5   21.4   6.60 1.1920    11.7     0    2      0.0   10 
23/10/19 12:50a   12.4   12.5   12.4    83    9.6   0.0   ---   0.00   0.0   ---   12.4   12.3   12.3  1020.6  0.00   0.0   0.041   0.000   22.5    33    5.4   21.2   6.60 1.1926    11.7     0    2      0.0   10 
23/10/19  1:00a   12.3   12.4   12.3    84    9.7   0.0   ---   0.00   0.0   ---   12.3   12.3   12.3  1020.3  0.00   0.0   0.042   0.000   22.4    33    5.4   21.1   6.60 1.1926    11.7     0    2      0.0   10 
23/10/19  1:10a   12.2   12.3   12.2    84    9.5   0.0   ---   0.00   0.0   ---   12.2   12.1   12.1  1020.3  0.00   0.0   0.043   0.000   22.2    34    5.6   20.8   6.81 1.1933    11.7     0    2      0.0   10 
23/10/19  1:20a   12.0   12.2   12.0    85    9.6   0.0   ---   0.00   0.0   ---   12.0   11.9   11.9  1019.9  0.00   0.0   0.044   0.000   22.2    34    5.6   20.8   6.81 1.1931    11.7     0    2      0.0   10 
23/10/19  1:30a   11.8   12.0   11.8    85    9.4   0.0   ---   0.00   0.0   ---   11.8   11.8   11.8  1019.8  0.00   0.0   0.045   0.000   21.9    34    5.4   20.4   6.82 1.1940    11.7     0    2      0.0   10 
23/10/19  1:40a   11.8   11.8   11.8    86    9.6   0.0   ---   0.00   0.0   ---   11.8   11.8   11.8  1019.8  0.00   0.0   0.045   0.000   21.9    34    5.4   20.4   6.82 1.1940    11.7     0    2      0.0   10 
23/10/19  1:50a   11.7   11.8   11.7    86    9.4   0.0   ---   0.00   0.0   ---   11.7   11.6   11.6  1019.5  0.00   0.0   0.046   0.000   21.8    34    5.3   20.3   6.82 1.1942    11.7     0    2      0.0   10 
23/10/19  2:00a   11.5   11.7   11.5    86    9.2   0.0   ---   0.00   0.0   ---   11.5   11.5   11.5  1019.4  0.00   0.0   0.047   0.000   21.8    34    5.2   20.2   6.83 1.1943    11.7     0    2      0.0   10 
23/10/19  2:10a   11.5   11.5   11.5    87    9.4   0.0   ---   0.00   0.0   ---   11.5   11.5   11.5  1019.4  0.00   0.0   0.047   0.000   21.7    34    5.1   20.1   6.83 1.1948    11.7     0    2      0.0   10 
23/10/19  2:20a   11.4   11.5   11.4    87    9.4   0.0   ---   0.00   0.0   ---   11.4   11.4   11.4  1019.4  0.00   0.0   0.048   0.000   21.6    34    5.0   19.9   6.83 1.1953    11.7     0    2      0.0   10 
23/10/19  2:30a   11.4   11.4   11.4    87    9.4   0.0   ---   0.00   0.0   ---   11.4   11.4   11.4  1019.3  0.00   0.0   0.048   0.000   21.5    35    5.4   19.9   7.04 1.1951    11.7     0    2      0.0   10 
23/10/19  2:40a   11.3   11.4   11.3    87    9.2   0.0   ---   0.00   0.0   ---   11.3   11.3   11.3  1019.3  0.00   0.0   0.049   0.000   21.4    35    5.3   19.8   7.04 1.1956    11.7     0    2      0.0   10 
23/10/19  2:50a   11.3   11.3   11.3    88    9.4   0.0   ---   0.00   0.0   ---   11.3   11.4   11.4  1019.3  0.00   0.0   0.049   0.000   21.4    34    4.9   19.7   6.84 1.1959    11.7     0    2      0.0   10 
23/10/19  3:00a   11.4   11.4   11.4    88    9.5   0.0   ---   0.00   0.0   ---   11.4   11.5   11.5  1019.0  0.00   0.0   0.048   0.000   21.3    35    5.2   19.6   7.04 1.1959    11.7     0    2      0.0   10 
23/10/19  3:10a   11.3   11.4   11.3    88    9.4   0.0   ---   0.00   0.0   ---   11.3   11.4   11.4  1019.0  0.00   0.0   0.049   0.000   21.2    35    5.1   19.6   7.05 1.1961    11.7     0    2      0.0   10 
23/10/19  3:20a   11.2   11.3   11.2    88    9.3   0.0   ---   0.00   0.0   ---   11.2   11.2   11.2  1019.0  0.00   0.0   0.050   0.000   21.1    35    5.0   19.4   7.05 1.1966    11.7     0    2      0.0   10 
23/10/19  3:30a   10.8   11.0   10.8    88    8.9   0.0   ---   0.00   0.0   ---   10.8   10.9   10.9  1019.0  0.00   0.0   0.052   0.000   20.9    35    4.9   19.2   7.05 1.1974    11.7     0    2      0.0   10 
23/10/19  3:40a   10.8   10.8   10.8    88    8.9   0.0   ---   0.00   0.0   ---   10.8   10.8   10.8  1019.0  0.00   0.0   0.052   0.000   20.7    35    4.7   19.1   7.05 1.1985    11.7     0    2      0.0   10 
23/10/19  3:50a   10.5   10.8   10.5    88    8.6   0.0   ---   0.00   0.0   ---   10.5   10.6   10.6  1019.0  0.00   0.0   0.054   0.000   20.6    35    4.6   18.9   7.05 1.1989    11.7     0    2      0.0   10 
23/10/19  4:00a   10.3   10.5   10.3    88    8.4   0.0   ---   0.00   0.0   ---   10.3   10.4   10.4  1018.9  0.00   0.0   0.056   0.000   20.6    35    4.6   18.9   7.05 1.1991    11.7     0    2      0.0   10 
23/10/19  4:10a   10.1   10.3   10.1    88    8.2   0.0   ---   0.00   0.0   ---   10.1   10.2   10.2  1018.9  0.00   0.0   0.057   0.000   20.6    36    5.0   18.9   7.23 1.1988    11.7     0    2      0.0   10 
23/10/19  4:20a    9.9   10.1    9.9    88    8.0   0.0   ---   0.00   0.0   ---    9.9   10.1   10.1  1019.1  0.00   0.0   0.058   0.000   20.4    35    4.5   18.8   7.05 1.1999    11.7     0    2      0.0   10 
23/10/19  4:30a    9.8    9.9    9.8    89    8.1   0.0   ---   0.00   0.0   ---    9.8    9.9    9.9  1019.0  0.00   0.0   0.059   0.000   20.3    36    4.8   18.7   7.22 1.2000    11.7     0    2      0.0   10 
23/10/19  4:40a    9.6    9.8    9.6    89    7.9   0.0   ---   0.00   0.0   ---    9.6    9.8    9.8  1019.0  0.00   0.0   0.061   0.000   20.3    36    4.7   18.7   7.22 1.2003    11.7     0    2      0.0   10 
23/10/19  4:50a    9.4    9.6    9.4    89    7.7   0.0   ---   0.00   0.0   ---    9.4    9.6    9.6  1018.9  0.00   0.0   0.062   0.000   20.2    36    4.6   18.6   7.22 1.2007    11.7     0    2      0.0   10 
23/10/19  5:00a    9.1    9.4    9.1    89    7.4   0.0   ---   0.00   0.0   ---    9.1    9.2    9.2  1019.0  0.00   0.0   0.064   0.000   20.2    35    4.2   18.5   7.05 1.2011    11.7     0    2      0.0   10 
23/10/19  5:10a    8.9    9.1    8.9    89    7.2   0.0   ---   0.00   0.0   ---    8.9    9.0    9.0  1019.0  0.00   0.0   0.066   0.000   20.0    36    4.5   18.4   7.21 1.2016    11.7     0    2      0.0   10 
23/10/19  5:20a    8.8    8.9    8.8    89    7.1   0.0   ---   0.00   0.0   ---    8.8    8.9    8.9  1019.5  0.00   0.0   0.066   0.000   19.9    36    4.4   18.3   7.21 1.2027    11.7     0    2      0.0   10 
23/10/19  5:30a    8.7    8.8    8.7    90    7.2   0.0   ---   0.00   0.0   ---    8.7    8.8    8.8  1019.5  0.00   0.0   0.067   0.000   19.8    36    4.3   18.2   7.20 1.2032    11.7     0    2      0.0   10 
23/10/19  5:40a    8.7    8.7    8.7    90    7.2   0.0   ---   0.00   0.0   ---    8.7    8.8    8.8  1019.5  0.00   0.0   0.067   0.000   19.7    36    4.2   18.1   7.20 1.2035    11.7     0    2      0.0   10 
23/10/19  5:50a    8.6    8.7    8.6    91    7.2   0.0   ---   0.00   0.0   ---    8.6    8.7    8.7  1019.6  0.00   0.0   0.068   0.000   19.5    36    4.0   17.8   7.19 1.2047    11.7     0    2      0.0   10 
23/10/19  6:00a    8.4    8.6    8.4    91    7.1   0.0   ---   0.00   0.0   ---    8.4    8.6    8.6  1019.7  0.00   0.0   0.069   0.000   19.4    36    4.0   17.8   7.19 1.2051    11.7     0    2      0.0   10 
23/10/19  6:10a    8.7    8.7    8.4    92    7.5   0.0   ---   0.00   0.0   ---    8.7    8.9    8.9  1019.7  0.00   0.0   0.067   0.000   19.4    36    4.0   17.8   7.19 1.2051    11.7     0    2      0.0   10 
23/10/19  6:20a    8.7    8.8    8.7    92    7.5   0.0   ---   0.00   0.0   ---    8.7    8.9    8.9  1019.9  0.00   0.0   0.067   0.000   19.3    36    3.9   17.7   7.19 1.2058    11.7     0    2      0.0   10 
23/10/19  6:30a    8.6    8.7    8.6    92    7.4   0.0   ---   0.00   0.0   ---    8.6    8.8    8.8  1019.9  0.00   0.0   0.068   0.000   19.3    36    3.8   17.6   7.18 1.2061    11.7     0    2      0.0   10 
23/10/19  6:40a    8.9    8.9    8.6    94    8.0   0.0   ---   0.00   0.0   ---    8.9    9.2    9.2  1019.9  0.00   0.0   0.065   0.000   19.2    36    3.7   17.5   7.18 1.2066    11.7     0    2      0.0   10 
23/10/19  6:50a    9.1    9.1    9.1    94    8.2   0.0   ---   0.00   0.0   ---    9.1    9.3    9.3  1020.0  0.00   0.0   0.064   0.000   19.2    37    4.1   17.6   7.35 1.2065    11.7     0    2      0.0   10 
23/10/19  7:00a    9.2    9.2    9.1    94    8.3   0.0   ---   0.00   0.0   ---    9.2    9.4    9.4  1020.2  0.00   0.0   0.063   0.000   19.2    37    4.1   17.6   7.35 1.2066    11.7     0    2      0.0   10 
23/10/19  7:10a    9.6    9.6    9.2    95    8.8   0.0   ---   0.00   0.0   ---    9.6    9.9    9.9  1020.2  0.00   0.0   0.061   0.000   19.1    37    4.0   17.4   7.35 1.2071    11.7     0    2      0.0   10 
23/10/19  7:20a   10.1   10.1    9.8    95    9.3   0.0   ---   0.00   0.0   ---   10.1   10.4   10.4  1020.6  0.00   0.0   0.057   0.000   19.1    37    4.0   17.4   7.35 1.2076    11.7     0    2      0.0   10 
23/10/19  7:30a   10.6   10.6   10.2    95    9.8   0.0   ---   0.00   0.0   ---   10.6   10.8   10.8  1020.6  0.00   0.0   0.054   0.000   19.1    37    4.0   17.4   7.35 1.2076    11.7     0    2      0.0   10 
23/10/19  7:40a   11.1   11.1   10.7    94   10.2   0.0   ---   0.00   0.0   ---   11.1   11.3   11.3  1020.6  0.00   0.0   0.050   0.000   19.3    38    4.6   17.7   7.55 1.2063    11.7     0    2      0.0   10 
23/10/19  7:50a   11.5   11.5   11.3    94   10.6   0.0   ---   0.00   0.0   ---   11.5   11.7   11.7  1020.5  0.00   0.0   0.047   0.000   19.4    38    4.7   17.9   7.55 1.2054    11.7     0    2      0.0   10 
23/10/19  8:00a   12.0   12.0   11.6    88   10.1   0.0   ---   0.00   0.0   ---   12.0   12.0   12.0  1020.3  0.00   0.0   0.044   0.000   19.4    38    4.7   17.9   7.55 1.2052    11.7     0    2      0.0   10 
23/10/19  8:10a   12.7   12.7   12.0    86   10.4   0.0   ---   0.00   0.0   ---   12.7   12.7   12.7  1020.3  0.00   0.0   0.039   0.000   19.4    38    4.7   17.9   7.55 1.2052    11.7     0    2      0.0   10